Arlington, TX (76017)

1:26 PM CDT on April 26, 2015 (GMT -0500)
Turf Club Estates | | Change Station
CLOSE
Current Station
Personal Weather Station
Location: Arlington, TX
Elevation: 639 ft
Nearby Weather Stations

Elev 639 ft 32.65 °N, 97.14 °W | Updated 4 seconds ago

Clear
Clear
80.4 °F
Feels Like 84 °F
N
0.0
Wind Variable Wind from SSW
Gusts 0.0 mph

Today
High -- | Low -- °F
--% Chance of Precip.
Yesterday
High -- | Low -- °F
Precip. -- in
6:46 AM 8:06 PM
First Quarter, 57% visible
Pressure 29.69 in
Visibility 10.0 miles
Clouds Clear
Heat Index 84 °F
Dew Point 71 °F
Humidity 73%
Rainfall 0.00 in
Snow Depth Not available.
UV 0.0 out of 12
Pollen 8.00 out of 12
Air Quality Not available.
Flu Activity Local Activity
METAR KGKY 261753Z 16007G16KT 10SM CLR 29/20 A2971 RMK AO2 SLP052 T02940200 10294 20178 55002

More Conditions Fewer Conditions

Pressure 29.69 in
Visibility 10.0 miles
Clouds Clear
Heat Index 84 °F
Dew Point 71 °F
Humidity 73%
Rainfall 0.00 in
Snow Depth Not available.
UV 0.0 out of 12
Pollen 8.00 out of 12
Air Quality Not available.
Flu Activity Local Activity
METAR KGKY 261753Z 16007G16KT 10SM CLR 29/20 A2971 RMK AO2 SLP052 T02940200 10294 20178 55002

More Conditions Fewer Conditions

The full scope of the disaster following a powerful 7.8-magnitude earthquake in Nepal may not come into view for days, but global charities are already sending emergency aid. Click to see how you can help.
Nowcast | as of 12:47 PM CDT on April 26, 2015

Scattered showers and thunderstorms have developed southwest of a Mineral Wells to Hillsboro to Mart line...and were moving northeast at 60 mph. These storms and showers should continue to spread northeast through mid afternoon with additional development occurring along and west of a Breckenridge to Waco line as well. The atmosphere will become more unstable by mid afternoon and some severe storms are expected to develop...mainly west of the Interstate 35 and 35w corridor. Those attending outdoor activities this afternoon...especially west of Interstate 35...should stay alert for approaching storms and move to shelter when thunder is heard or lightning seen. Elsewhere...mid and high clouds will be increasing this afternoon as temperatures warm into the low and mid 80s.

×

10-Day Weather Forecast

Almanac

Astronomy

Apr. 26, 2015 Rise Set
Actual Time
Civil Twilight
Nautical Twilight
Astronomical Twilight
Moon
Length of Visible Light
Length of Day
Tomorrow will be .
, % of the Moon is Illuminated

Today's Extremes

State Highs State Lows

Community

WunderPhotos

Upload Photos

1,817,082 photos uploaded!

WunderBlogs® & News

Nearby

Air Quality

  Air Quality AQ Index Pollutant
Not available.

Snow Depth

Station Depth Elevation

Earthquake Activity

City Distance Mag. Time & Date
Minimum magnitude displayed is 2.5.

Coastal Water Temperatures

Place Temperature

Stations

Nearby Weather Stations

Station Location Temp. Windchill Dew Point Humidity Wind Precip. Elev Updated Type